WAT87 RJCC-RCTP
Flight info
| Callsign | WAT87 |
|---|---|
| Flight time | 3h 59m |
| Altitude | 36000 |
| Route | DALBI Y120 TAPPI Y12 ARIKA Y14 SUGNO/N0485F380 Y14 MIHOU Y45 HKC Y50 IGMON A1 DRAKE DRAKE1A |
| Aircraft | B772/H-SDE2E3FGHIJ5LORVWXY/LB1D1 |
Departure
| Time | 2026-05-08 22:13 |
|---|---|
| Airport | New Chitose Airport (RJCC) |
Arrival
| Time | 2026-05-09 02:12 |
|---|---|
| Airport | Taiwan Taoyuan International Airport (RCTP) |
| Time | Latitude | Longitude | Altitude | Speed | Heading |
|---|---|---|---|---|---|
| 2026-05-08 21:45 | 42.78847 | 141.68267 | 43 ft | 0 kts | 249° |
| 2026-05-08 22:03 | 42.78849 | 141.68274 | 43 ft | 2 kts | 249° |
| 2026-05-08 22:03 | 42.78855 | 141.68292 | 42 ft | 2 kts | 250° |
| 2026-05-08 22:03 | 42.78860 | 141.68312 | 42 ft | 2 kts | 249° |
| 2026-05-08 22:04 | 42.78867 | 141.68330 | 41 ft | 2 kts | 228° |
| 2026-05-08 22:04 | 42.78878 | 141.68343 | 41 ft | 2 kts | 211° |
| 2026-05-08 22:04 | 42.78892 | 141.68351 | 41 ft | 2 kts | 194° |
| 2026-05-08 22:04 | 42.78906 | 141.68354 | 41 ft | 2 kts | 176° |
| 2026-05-08 22:05 | 42.78921 | 141.68351 | 40 ft | 2 kts | 160° |
| 2026-05-08 22:05 | 42.78935 | 141.68341 | 40 ft | 2 kts | 144° |
| 2026-05-08 22:05 | 42.78947 | 141.68329 | 40 ft | 2 kts | 144° |
| 2026-05-08 22:05 | 42.78959 | 141.68318 | 39 ft | 2 kts | 146° |
| 2026-05-08 22:06 | 42.78965 | 141.68312 | 39 ft | 0 kts | 146° |
| 2026-05-08 22:08 | 42.78964 | 141.68313 | 39 ft | 1 kts | 146° |
| 2026-05-08 22:08 | 42.78926 | 141.68348 | 40 ft | 9 kts | 143° |
| 2026-05-08 22:09 | 42.78898 | 141.68422 | 41 ft | 10 kts | 93° |
| 2026-05-08 22:09 | 42.78912 | 141.68519 | 40 ft | 12 kts | 73° |
| 2026-05-08 22:09 | 42.78939 | 141.68654 | 36 ft | 16 kts | 93° |
| 2026-05-08 22:09 | 42.78864 | 141.68774 | 34 ft | 18 kts | 142° |
| 2026-05-08 22:10 | 42.78767 | 141.68825 | 32 ft | 0 kts | 172° |
| 2026-05-08 22:12 | 42.78765 | 141.68825 | 32 ft | 3 kts | 172° |
| 2026-05-08 22:12 | 42.78592 | 141.68856 | 32 ft | 61 kts | 174° |
| 2026-05-08 22:13 | 42.77908 | 141.68972 | 32 ft | 135 kts | 173° |
| 2026-05-08 22:13 | 42.76825 | 141.69158 | 295 ft | 169 kts | 173° |
| 2026-05-08 22:13 | 42.75667 | 141.69376 | 1106 ft | 173 kts | 173° |
| 2026-05-08 22:13 | 42.74524 | 141.69600 | 1794 ft | 173 kts | 173° |
| 2026-05-08 22:14 | 42.73283 | 141.69843 | 2137 ft | 189 kts | 173° |
| 2026-05-08 22:14 | 42.71920 | 141.70110 | 2540 ft | 205 kts | 173° |
| 2026-05-08 22:14 | 42.70466 | 141.70394 | 2999 ft | 220 kts | 173° |
| 2026-05-08 22:14 | 42.68907 | 141.70698 | 3475 ft | 235 kts | 174° |
| 2026-05-08 22:15 | 42.67245 | 141.71022 | 3946 ft | 250 kts | 174° |
| 2026-05-08 22:15 | 42.65514 | 141.71360 | 4631 ft | 255 kts | 174° |
| 2026-05-08 22:15 | 42.63763 | 141.71703 | 5382 ft | 258 kts | 174° |
| 2026-05-08 22:15 | 42.61982 | 141.72051 | 6069 ft | 263 kts | 175° |
| 2026-05-08 22:16 | 42.60151 | 141.72362 | 6759 ft | 266 kts | 182° |
| 2026-05-08 22:16 | 42.58364 | 141.71893 | 7396 ft | 266 kts | 207° |
| 2026-05-08 22:16 | 42.56904 | 141.70424 | 8077 ft | 265 kts | 231° |
| 2026-05-08 22:16 | 42.55917 | 141.68333 | 8783 ft | 267 kts | 241° |
| 2026-05-08 22:17 | 42.55026 | 141.66132 | 9450 ft | 271 kts | 241° |
| 2026-05-08 22:17 | 42.54117 | 141.63873 | 9936 ft | 281 kts | 241° |
| 2026-05-08 22:17 | 42.53157 | 141.61487 | 10246 ft | 298 kts | 241° |
| 2026-05-08 22:17 | 42.52136 | 141.58953 | 10515 ft | 314 kts | 241° |
| 2026-05-08 22:18 | 42.51066 | 141.56296 | 10787 ft | 331 kts | 241° |
| 2026-05-08 22:18 | 42.49941 | 141.53510 | 11106 ft | 346 kts | 241° |
| 2026-05-08 22:18 | 42.48769 | 141.50607 | 11429 ft | 359 kts | 241° |
| 2026-05-08 22:18 | 42.47563 | 141.47623 | 12010 ft | 365 kts | 241° |
| 2026-05-08 22:19 | 42.46349 | 141.44622 | 12732 ft | 367 kts | 241° |
| 2026-05-08 22:19 | 42.45123 | 141.41594 | 13395 ft | 370 kts | 241° |
| 2026-05-08 22:19 | 42.43874 | 141.38514 | 14014 ft | 375 kts | 241° |
| 2026-05-08 22:19 | 42.42621 | 141.35425 | 14572 ft | 380 kts | 241° |
| 2026-05-08 22:20 | 42.41343 | 141.32281 | 15163 ft | 385 kts | 240° |
| 2026-05-08 22:20 | 42.40061 | 141.29130 | 15891 ft | 385 kts | 241° |
| 2026-05-08 22:20 | 42.38775 | 141.25971 | 16563 ft | 387 kts | 241° |
| 2026-05-08 22:20 | 42.37478 | 141.22787 | 17097 ft | 392 kts | 241° |
| 2026-05-08 22:21 | 42.36159 | 141.19554 | 17561 ft | 398 kts | 241° |
| 2026-05-08 22:21 | 42.34814 | 141.16261 | 18178 ft | 401 kts | 242° |
| 2026-05-08 22:21 | 42.33471 | 141.12978 | 18848 ft | 402 kts | 242° |
| 2026-05-08 22:21 | 42.32125 | 141.09690 | 19421 ft | 404 kts | 242° |
| 2026-05-08 22:22 | 42.30763 | 141.06366 | 19949 ft | 408 kts | 242° |
| 2026-05-08 22:22 | 42.29393 | 141.03028 | 20473 ft | 411 kts | 242° |
| 2026-05-08 22:22 | 42.28010 | 140.99660 | 21019 ft | 414 kts | 242° |
| 2026-05-08 22:22 | 42.26617 | 140.96274 | 21552 ft | 416 kts | 242° |
| 2026-05-08 22:23 | 42.25205 | 140.92843 | 22070 ft | 419 kts | 242° |
| 2026-05-08 22:23 | 42.23791 | 140.89413 | 22578 ft | 422 kts | 242° |
| 2026-05-08 22:23 | 42.22368 | 140.85966 | 23097 ft | 424 kts | 242° |
| 2026-05-08 22:23 | 42.20936 | 140.82500 | 23588 ft | 427 kts | 242° |
| 2026-05-08 22:24 | 42.19494 | 140.79013 | 24080 ft | 429 kts | 242° |
| 2026-05-08 22:24 | 42.18043 | 140.75510 | 24505 ft | 432 kts | 242° |
| 2026-05-08 22:24 | 42.16572 | 140.71962 | 24919 ft | 434 kts | 242° |
| 2026-05-08 22:24 | 42.15100 | 140.68416 | 25321 ft | 437 kts | 242° |
| 2026-05-08 22:25 | 42.13619 | 140.64854 | 25743 ft | 439 kts | 242° |
| 2026-05-08 22:25 | 42.12124 | 140.61267 | 26121 ft | 441 kts | 241° |
| 2026-05-08 22:25 | 42.10386 | 140.57823 | 26519 ft | 444 kts | 233° |
| 2026-05-08 22:25 | 42.08273 | 140.54767 | 26923 ft | 448 kts | 225° |
| 2026-05-08 22:26 | 42.05816 | 140.52158 | 27353 ft | 452 kts | 216° |
| 2026-05-08 22:26 | 42.03068 | 140.50069 | 27610 ft | 457 kts | 208° |
| 2026-05-08 22:26 | 42.00049 | 140.48548 | 27965 ft | 461 kts | 200° |
| 2026-05-08 22:26 | 41.96963 | 140.47348 | 28296 ft | 462 kts | 199° |
| 2026-05-08 22:27 | 41.93858 | 140.46175 | 28555 ft | 465 kts | 199° |
| 2026-05-08 22:27 | 41.90748 | 140.45006 | 28823 ft | 467 kts | 199° |
| 2026-05-08 22:27 | 41.87624 | 140.43836 | 29184 ft | 466 kts | 199° |
| 2026-05-08 22:27 | 41.84512 | 140.42674 | 29583 ft | 465 kts | 200° |
| 2026-05-08 22:28 | 41.81408 | 140.41516 | 29911 ft | 465 kts | 199° |
| 2026-05-08 22:28 | 41.78282 | 140.40352 | 30271 ft | 464 kts | 200° |
| 2026-05-08 22:28 | 41.75196 | 140.39205 | 30714 ft | 461 kts | 200° |
| 2026-05-08 22:28 | 41.72132 | 140.38068 | 31173 ft | 457 kts | 200° |
| 2026-05-08 22:29 | 41.69086 | 140.36939 | 31584 ft | 454 kts | 200° |
| 2026-05-08 22:29 | 41.66057 | 140.35817 | 31939 ft | 452 kts | 200° |
| 2026-05-08 22:29 | 41.63039 | 140.34699 | 32258 ft | 452 kts | 200° |
| 2026-05-08 22:29 | 41.60016 | 140.33582 | 32626 ft | 450 kts | 200° |
| 2026-05-08 22:30 | 41.57002 | 140.32469 | 33037 ft | 447 kts | 200° |
| 2026-05-08 22:30 | 41.54023 | 140.31370 | 33469 ft | 445 kts | 200° |
| 2026-05-08 22:30 | 41.51053 | 140.30275 | 33846 ft | 444 kts | 200° |
| 2026-05-08 22:30 | 41.48091 | 140.29183 | 34150 ft | 444 kts | 200° |
| 2026-05-08 22:31 | 41.45119 | 140.28089 | 34486 ft | 444 kts | 200° |
| 2026-05-08 22:31 | 41.42158 | 140.27000 | 34855 ft | 442 kts | 200° |
| 2026-05-08 22:31 | 41.39212 | 140.25919 | 35262 ft | 440 kts | 200° |
| 2026-05-08 22:31 | 41.36253 | 140.24833 | 35527 ft | 440 kts | 200° |
| 2026-05-08 22:32 | 41.33299 | 140.23749 | 35563 ft | 443 kts | 200° |
| 2026-05-08 22:32 | 41.27388 | 140.21586 | 35570 ft | 440 kts | 200° |
| 2026-05-08 22:33 | 41.21507 | 140.19437 | 35562 ft | 441 kts | 200° |
| 2026-05-08 22:33 | 41.15592 | 140.17280 | 35582 ft | 441 kts | 200° |
| 2026-05-08 22:34 | 41.09682 | 140.15175 | 35569 ft | 443 kts | 199° |
| 2026-05-08 22:34 | 41.03740 | 140.13125 | 35608 ft | 441 kts | 199° |
| 2026-05-08 22:35 | 40.97844 | 140.11092 | 35609 ft | 440 kts | 200° |
| 2026-05-08 22:35 | 40.91885 | 140.09036 | 35598 ft | 442 kts | 200° |
| 2026-05-08 22:36 | 40.85973 | 140.07001 | 35622 ft | 441 kts | 200° |
| 2026-05-08 22:36 | 40.80061 | 140.04969 | 35627 ft | 440 kts | 200° |
| 2026-05-08 22:37 | 40.74139 | 140.02936 | 35633 ft | 440 kts | 200° |
| 2026-05-08 22:37 | 40.68212 | 140.00905 | 35624 ft | 440 kts | 200° |
| 2026-05-08 22:38 | 40.62326 | 139.98894 | 35623 ft | 437 kts | 200° |
| 2026-05-08 22:38 | 40.56440 | 139.96884 | 35620 ft | 438 kts | 200° |
| 2026-05-08 22:39 | 40.50548 | 139.94876 | 35627 ft | 438 kts | 200° |
| 2026-05-08 22:39 | 40.44716 | 139.92783 | 35644 ft | 431 kts | 205° |
| 2026-05-08 22:40 | 40.39352 | 139.89408 | 35649 ft | 429 kts | 211° |
| 2026-05-08 22:40 | 40.34063 | 139.85837 | 35678 ft | 428 kts | 211° |
| 2026-05-08 22:41 | 40.28802 | 139.82296 | 35686 ft | 426 kts | 212° |
| 2026-05-08 22:41 | 40.23558 | 139.78772 | 35694 ft | 426 kts | 212° |
| 2026-05-08 22:42 | 40.18303 | 139.75249 | 35709 ft | 426 kts | 212° |
| 2026-05-08 22:42 | 40.13034 | 139.71723 | 35702 ft | 426 kts | 212° |
| 2026-05-08 22:43 | 40.07787 | 139.68219 | 35722 ft | 424 kts | 212° |
| 2026-05-08 22:43 | 40.02532 | 139.64738 | 35743 ft | 424 kts | 211° |
| 2026-05-08 22:44 | 39.97269 | 139.61318 | 35744 ft | 421 kts | 212° |
| 2026-05-08 22:44 | 39.92028 | 139.57913 | 35740 ft | 424 kts | 211° |
| 2026-05-08 22:45 | 39.86765 | 139.54501 | 35759 ft | 423 kts | 212° |
| 2026-05-08 22:45 | 39.81534 | 139.51113 | 35758 ft | 421 kts | 212° |
| 2026-05-08 22:46 | 39.76295 | 139.47726 | 35766 ft | 421 kts | 212° |
| 2026-05-08 22:46 | 39.71065 | 139.44349 | 35759 ft | 421 kts | 212° |
| 2026-05-08 22:47 | 39.65838 | 139.40981 | 35773 ft | 420 kts | 212° |
| 2026-05-08 22:47 | 39.60605 | 139.37614 | 35776 ft | 421 kts | 212° |
| 2026-05-08 22:48 | 39.55376 | 139.34256 | 35794 ft | 420 kts | 211° |
| 2026-05-08 22:48 | 39.50158 | 139.30910 | 35797 ft | 421 kts | 211° |
| 2026-05-08 22:49 | 39.44943 | 139.27571 | 35808 ft | 419 kts | 211° |
| 2026-05-08 22:49 | 39.37124 | 139.22577 | 35625 ft | 417 kts | 211° |
| 2026-05-08 22:50 | 39.34538 | 139.20928 | 35818 ft | 418 kts | 212° |
| 2026-05-08 22:50 | 39.31927 | 139.19263 | 35789 ft | 422 kts | 211° |
| 2026-05-08 22:50 | 39.26686 | 139.15928 | 35799 ft | 420 kts | 211° |
| 2026-05-08 22:51 | 39.21458 | 139.12607 | 35855 ft | 421 kts | 212° |
| 2026-05-08 22:51 | 39.16218 | 139.09284 | 35784 ft | 420 kts | 212° |
| 2026-05-08 22:52 | 39.11007 | 139.05984 | 35788 ft | 419 kts | 211° |
| 2026-05-08 22:52 | 39.05777 | 139.02678 | 35684 ft | 421 kts | 212° |
| 2026-05-08 22:53 | 39.03175 | 139.01036 | 35822 ft | 417 kts | 212° |
| 2026-05-08 22:53 | 39.00565 | 138.99389 | 36006 ft | 420 kts | 212° |
| 2026-05-08 22:53 | 38.97940 | 138.97734 | 35839 ft | 420 kts | 211° |
| 2026-05-08 22:53 | 38.95346 | 138.96102 | 35832 ft | 414 kts | 212° |
| 2026-05-08 22:54 | 38.90208 | 138.92870 | 35812 ft | 414 kts | 212° |
| 2026-05-08 22:54 | 38.84995 | 138.89594 | 35832 ft | 417 kts | 212° |
| 2026-05-08 22:55 | 38.79806 | 138.86342 | 35903 ft | 415 kts | 212° |
| 2026-05-08 22:55 | 38.74650 | 138.83116 | 35804 ft | 411 kts | 212° |
| 2026-05-08 22:56 | 38.69496 | 138.79893 | 35882 ft | 415 kts | 212° |
| 2026-05-08 22:56 | 38.64343 | 138.76679 | 35816 ft | 412 kts | 212° |
| 2026-05-08 22:57 | 38.59190 | 138.73468 | 35850 ft | 414 kts | 212° |
| 2026-05-08 22:57 | 38.54030 | 138.70259 | 35863 ft | 414 kts | 212° |
| 2026-05-08 22:58 | 38.48844 | 138.67038 | 35909 ft | 414 kts | 212° |
| 2026-05-08 22:58 | 38.43699 | 138.63850 | 35870 ft | 411 kts | 212° |
| 2026-05-08 22:59 | 38.38559 | 138.60667 | 35885 ft | 412 kts | 212° |
| 2026-05-08 22:59 | 38.33435 | 138.57503 | 35892 ft | 409 kts | 213° |
| 2026-05-08 23:00 | 38.28306 | 138.54336 | 35847 ft | 412 kts | 213° |
| 2026-05-08 23:00 | 38.23155 | 138.51163 | 35895 ft | 413 kts | 212° |
| 2026-05-08 23:01 | 38.18026 | 138.48010 | 35884 ft | 408 kts | 212° |
| 2026-05-08 23:01 | 38.12912 | 138.44869 | 35859 ft | 409 kts | 213° |
| 2026-05-08 23:02 | 38.08039 | 138.41265 | 35879 ft | 404 kts | 224° |
| 2026-05-08 23:02 | 38.04363 | 138.36032 | 35881 ft | 398 kts | 239° |
| 2026-05-08 23:03 | 38.01667 | 138.29934 | 35917 ft | 398 kts | 242° |
| 2026-05-08 23:03 | 37.98997 | 138.23823 | 35933 ft | 399 kts | 241° |
| 2026-05-08 23:04 | 37.96311 | 138.17719 | 35901 ft | 399 kts | 241° |
| 2026-05-08 23:04 | 37.93613 | 138.11613 | 35917 ft | 397 kts | 241° |
| 2026-05-08 23:05 | 37.90912 | 138.05521 | 35905 ft | 398 kts | 241° |
| 2026-05-08 23:05 | 37.88190 | 137.99392 | 35932 ft | 403 kts | 241° |
| 2026-05-08 23:06 | 37.85473 | 137.93292 | 35927 ft | 398 kts | 241° |
| 2026-05-08 23:06 | 37.82739 | 137.87164 | 35936 ft | 400 kts | 241° |
| 2026-05-08 23:07 | 37.80021 | 137.81086 | 35923 ft | 400 kts | 242° |
| 2026-05-08 23:07 | 37.77298 | 137.75004 | 35939 ft | 400 kts | 241° |
| 2026-05-08 23:08 | 37.74564 | 137.68912 | 35953 ft | 398 kts | 241° |
| 2026-05-08 23:08 | 37.71846 | 137.62867 | 35958 ft | 396 kts | 242° |
| 2026-05-08 23:09 | 37.69122 | 137.56819 | 36008 ft | 401 kts | 242° |
| 2026-05-08 23:09 | 37.66402 | 137.50794 | 35977 ft | 394 kts | 242° |
| 2026-05-08 23:10 | 37.63680 | 137.44773 | 35970 ft | 397 kts | 242° |
| 2026-05-08 23:10 | 37.60964 | 137.38778 | 35945 ft | 394 kts | 242° |
| 2026-05-08 23:11 | 37.58259 | 137.32817 | 35972 ft | 395 kts | 242° |
| 2026-05-08 23:11 | 37.55544 | 137.26844 | 35982 ft | 395 kts | 241° |
| 2026-05-08 23:12 | 37.52816 | 137.20856 | 35997 ft | 394 kts | 242° |
| 2026-05-08 23:12 | 37.50109 | 137.14924 | 35995 ft | 393 kts | 241° |
| 2026-05-08 23:13 | 37.47398 | 137.08993 | 36000 ft | 393 kts | 242° |
| 2026-05-08 23:13 | 37.44671 | 137.03039 | 36010 ft | 392 kts | 242° |
| 2026-05-08 23:14 | 37.41951 | 136.97109 | 35994 ft | 393 kts | 242° |
| 2026-05-08 23:14 | 37.39224 | 136.91177 | 36009 ft | 393 kts | 242° |
| 2026-05-08 23:15 | 37.36501 | 136.85263 | 36014 ft | 392 kts | 242° |
| 2026-05-08 23:15 | 37.33777 | 136.79359 | 36006 ft | 392 kts | 242° |
| 2026-05-08 23:16 | 37.31037 | 136.73429 | 36003 ft | 394 kts | 242° |
| 2026-05-08 23:16 | 37.28303 | 136.67524 | 36022 ft | 393 kts | 242° |
| 2026-05-08 23:17 | 37.25550 | 136.61589 | 36006 ft | 392 kts | 242° |
| 2026-05-08 23:17 | 37.22804 | 136.55680 | 36024 ft | 394 kts | 242° |
| 2026-05-08 23:18 | 37.21435 | 136.52738 | 35812 ft | 391 kts | 242° |
| 2026-05-08 23:18 | 37.20073 | 136.49813 | 36131 ft | 391 kts | 242° |
| 2026-05-08 23:18 | 37.18698 | 136.46862 | 35869 ft | 394 kts | 242° |
| 2026-05-08 23:18 | 37.17325 | 136.43919 | 36029 ft | 394 kts | 242° |
| 2026-05-08 23:19 | 37.14539 | 136.37955 | 35883 ft | 399 kts | 242° |
| 2026-05-08 23:19 | 37.13153 | 136.34993 | 35986 ft | 391 kts | 242° |
| 2026-05-08 23:19 | 37.11776 | 136.32053 | 36043 ft | 394 kts | 242° |
| 2026-05-08 23:20 | 37.09000 | 136.26132 | 36055 ft | 397 kts | 242° |
| 2026-05-08 23:20 | 37.06206 | 136.20181 | 36060 ft | 397 kts | 242° |
| 2026-05-08 23:21 | 37.03430 | 136.14282 | 36058 ft | 395 kts | 242° |
| 2026-05-08 23:21 | 37.00647 | 136.08377 | 36062 ft | 396 kts | 242° |
| 2026-05-08 23:22 | 36.97865 | 136.02486 | 36060 ft | 397 kts | 242° |
| 2026-05-08 23:22 | 36.95060 | 135.96557 | 36058 ft | 395 kts | 242° |
| 2026-05-08 23:23 | 36.92268 | 135.90666 | 36057 ft | 396 kts | 242° |
| 2026-05-08 23:23 | 36.89473 | 135.84778 | 36059 ft | 396 kts | 242° |
| 2026-05-08 23:24 | 36.86659 | 135.78862 | 36068 ft | 394 kts | 242° |
| 2026-05-08 23:24 | 36.83879 | 135.73025 | 36057 ft | 394 kts | 242° |
| 2026-05-08 23:25 | 36.81079 | 135.67160 | 36064 ft | 395 kts | 242° |
| 2026-05-08 23:25 | 36.78293 | 135.61332 | 36057 ft | 392 kts | 242° |
| 2026-05-08 23:26 | 36.75491 | 135.55481 | 36063 ft | 394 kts | 242° |
| 2026-05-08 23:26 | 36.72694 | 135.49653 | 36063 ft | 391 kts | 243° |
| 2026-05-08 23:27 | 36.69915 | 135.43871 | 36076 ft | 391 kts | 243° |
| 2026-05-08 23:27 | 36.67117 | 135.38058 | 36060 ft | 393 kts | 243° |
| 2026-05-08 23:28 | 36.64323 | 135.32264 | 36084 ft | 391 kts | 242° |
| 2026-05-08 23:28 | 36.61540 | 135.26503 | 36082 ft | 388 kts | 242° |
| 2026-05-08 23:29 | 36.58763 | 135.20765 | 36081 ft | 390 kts | 242° |
| 2026-05-08 23:29 | 36.55966 | 135.14995 | 36091 ft | 391 kts | 243° |
| 2026-05-08 23:30 | 36.53178 | 135.09254 | 36087 ft | 389 kts | 243° |
| 2026-05-08 23:30 | 36.50387 | 135.03515 | 36100 ft | 390 kts | 242° |
| 2026-05-08 23:31 | 36.47597 | 134.97792 | 36089 ft | 386 kts | 243° |
| 2026-05-08 23:31 | 36.44822 | 134.92105 | 36092 ft | 389 kts | 242° |
| 2026-05-08 23:32 | 36.42036 | 134.86407 | 36088 ft | 387 kts | 242° |
| 2026-05-08 23:32 | 36.39260 | 134.80738 | 36094 ft | 386 kts | 243° |
| 2026-05-08 23:33 | 36.36470 | 134.75051 | 36100 ft | 384 kts | 243° |
| 2026-05-08 23:33 | 36.33701 | 134.69416 | 36079 ft | 386 kts | 243° |
| 2026-05-08 23:34 | 36.30912 | 134.63748 | 36077 ft | 387 kts | 243° |
| 2026-05-08 23:34 | 36.28122 | 134.58090 | 36089 ft | 385 kts | 243° |
| 2026-05-08 23:35 | 36.25333 | 134.52442 | 36081 ft | 384 kts | 243° |
| 2026-05-08 23:35 | 36.22558 | 134.46834 | 36095 ft | 384 kts | 243° |
| 2026-05-08 23:36 | 36.19781 | 134.41231 | 36096 ft | 384 kts | 243° |
| 2026-05-08 23:36 | 36.16982 | 134.35593 | 36088 ft | 385 kts | 243° |
| 2026-05-08 23:37 | 36.14198 | 134.29994 | 36096 ft | 385 kts | 243° |
| 2026-05-08 23:37 | 36.11399 | 134.24374 | 36103 ft | 384 kts | 242° |
| 2026-05-08 23:38 | 36.08604 | 134.18773 | 36127 ft | 384 kts | 243° |
| 2026-05-08 23:38 | 36.05824 | 134.13212 | 36099 ft | 381 kts | 243° |
| 2026-05-08 23:39 | 36.03047 | 134.07662 | 36099 ft | 382 kts | 243° |
| 2026-05-08 23:39 | 36.00257 | 134.02099 | 36098 ft | 381 kts | 243° |
| 2026-05-08 23:40 | 35.97468 | 133.96545 | 36097 ft | 383 kts | 243° |
| 2026-05-08 23:40 | 35.94685 | 133.91011 | 36102 ft | 381 kts | 243° |
| 2026-05-08 23:41 | 35.91893 | 133.85469 | 36107 ft | 382 kts | 243° |
| 2026-05-08 23:41 | 35.89096 | 133.79925 | 36101 ft | 382 kts | 243° |
| 2026-05-08 23:42 | 35.86294 | 133.74379 | 36115 ft | 382 kts | 243° |
| 2026-05-08 23:42 | 35.83497 | 133.68854 | 36110 ft | 384 kts | 243° |
| 2026-05-08 23:43 | 35.80682 | 133.63303 | 36110 ft | 382 kts | 243° |
| 2026-05-08 23:43 | 35.77868 | 133.57761 | 36119 ft | 384 kts | 243° |
| 2026-05-08 23:44 | 35.75051 | 133.52224 | 36105 ft | 382 kts | 243° |
| 2026-05-08 23:44 | 35.72231 | 133.46688 | 36113 ft | 383 kts | 243° |
| 2026-05-08 23:45 | 35.69407 | 133.41155 | 36114 ft | 382 kts | 243° |
| 2026-05-08 23:45 | 35.66585 | 133.35632 | 36119 ft | 384 kts | 243° |
| 2026-05-08 23:46 | 35.63749 | 133.30091 | 36138 ft | 385 kts | 242° |
| 2026-05-08 23:46 | 35.60919 | 133.24572 | 36138 ft | 384 kts | 242° |
| 2026-05-08 23:47 | 35.58073 | 133.19031 | 36135 ft | 383 kts | 243° |
| 2026-05-08 23:47 | 35.55235 | 133.13514 | 36137 ft | 385 kts | 242° |
| 2026-05-08 23:48 | 35.51589 | 133.08670 | 36129 ft | 397 kts | 225° |
| 2026-05-08 23:48 | 35.49209 | 133.06863 | 36150 ft | 410 kts | 219° |
| 2026-05-08 23:48 | 35.46684 | 133.05192 | 36137 ft | 411 kts | 219° |
| 2026-05-08 23:49 | 35.41647 | 133.01900 | 36135 ft | 412 kts | 219° |
| 2026-05-08 23:49 | 35.36603 | 132.98611 | 36126 ft | 411 kts | 219° |
| 2026-05-08 23:50 | 35.31583 | 132.95343 | 36124 ft | 409 kts | 218° |
| 2026-05-08 23:50 | 35.26538 | 132.92061 | 36119 ft | 412 kts | 218° |
| 2026-05-08 23:51 | 35.21536 | 132.88818 | 36125 ft | 406 kts | 219° |
| 2026-05-08 23:51 | 35.16522 | 132.85554 | 36122 ft | 412 kts | 219° |
| 2026-05-08 23:52 | 35.11502 | 132.82239 | 36123 ft | 408 kts | 219° |
| 2026-05-08 23:52 | 35.06523 | 132.78951 | 36121 ft | 408 kts | 219° |
| 2026-05-08 23:53 | 35.01570 | 132.75690 | 36120 ft | 406 kts | 219° |
| 2026-05-08 23:53 | 34.96604 | 132.72422 | 36117 ft | 406 kts | 219° |
| 2026-05-08 23:54 | 34.91636 | 132.69157 | 36115 ft | 406 kts | 220° |
| 2026-05-08 23:55 | 34.84188 | 132.64273 | 36124 ft | 406 kts | 220° |
| 2026-05-08 23:55 | 34.79196 | 132.61002 | 36123 ft | 410 kts | 219° |
| 2026-05-08 23:56 | 34.74180 | 132.57725 | 36119 ft | 407 kts | 219° |
| 2026-05-08 23:56 | 34.69197 | 132.54471 | 36120 ft | 410 kts | 220° |
| 2026-05-08 23:57 | 34.64183 | 132.51203 | 36121 ft | 408 kts | 219° |
| 2026-05-08 23:57 | 34.59187 | 132.47950 | 36122 ft | 409 kts | 219° |
| 2026-05-08 23:58 | 34.54167 | 132.44683 | 36117 ft | 413 kts | 219° |
| 2026-05-08 23:58 | 34.49148 | 132.41429 | 36116 ft | 408 kts | 220° |
| 2026-05-08 23:59 | 34.44121 | 132.38167 | 36116 ft | 411 kts | 219° |
| 2026-05-08 23:59 | 34.39073 | 132.34896 | 36121 ft | 413 kts | 219° |
| 2026-05-09 00:00 | 34.34034 | 132.31619 | 36150 ft | 411 kts | 219° |
| 2026-05-09 00:00 | 34.29009 | 132.28356 | 36155 ft | 412 kts | 219° |
| 2026-05-09 00:01 | 34.23947 | 132.25072 | 36155 ft | 412 kts | 219° |
| 2026-05-09 00:01 | 34.18895 | 132.21800 | 36160 ft | 414 kts | 219° |
| 2026-05-09 00:02 | 34.13839 | 132.18531 | 36157 ft | 414 kts | 219° |
| 2026-05-09 00:02 | 34.08787 | 132.15270 | 36155 ft | 412 kts | 219° |
| 2026-05-09 00:03 | 34.03554 | 132.12306 | 36153 ft | 421 kts | 214° |
| 2026-05-09 00:03 | 33.98153 | 132.09555 | 36151 ft | 421 kts | 214° |
| 2026-05-09 00:04 | 33.92811 | 132.06810 | 36152 ft | 418 kts | 214° |
| 2026-05-09 00:04 | 33.87438 | 132.04036 | 36148 ft | 421 kts | 214° |
| 2026-05-09 00:05 | 33.82069 | 132.01265 | 36147 ft | 421 kts | 214° |
| 2026-05-09 00:05 | 33.76688 | 131.98486 | 36146 ft | 423 kts | 215° |
| 2026-05-09 00:06 | 33.71321 | 131.95708 | 36146 ft | 418 kts | 215° |
| 2026-05-09 00:06 | 33.65961 | 131.92930 | 36146 ft | 422 kts | 214° |
| 2026-05-09 00:07 | 33.60607 | 131.90163 | 36143 ft | 420 kts | 214° |
| 2026-05-09 00:07 | 33.55257 | 131.87401 | 36138 ft | 417 kts | 215° |
| 2026-05-09 00:08 | 33.49933 | 131.84656 | 36134 ft | 417 kts | 215° |
| 2026-05-09 00:08 | 33.44584 | 131.81896 | 36133 ft | 422 kts | 215° |
| 2026-05-09 00:09 | 33.39239 | 131.79151 | 36135 ft | 417 kts | 215° |
| 2026-05-09 00:09 | 33.33926 | 131.76421 | 36133 ft | 417 kts | 214° |
| 2026-05-09 00:10 | 33.28575 | 131.73675 | 36126 ft | 418 kts | 214° |
| 2026-05-09 00:10 | 33.23227 | 131.70933 | 36129 ft | 420 kts | 215° |
| 2026-05-09 00:10 | 33.20702 | 131.69338 | 36131 ft | 406 kts | 221° |
| 2026-05-09 00:11 | 33.18317 | 131.67578 | 36119 ft | 404 kts | 222° |
| 2026-05-09 00:11 | 33.13519 | 131.64002 | 36127 ft | 406 kts | 222° |
| 2026-05-09 00:12 | 33.08762 | 131.60469 | 36120 ft | 404 kts | 223° |
| 2026-05-09 00:12 | 33.04003 | 131.56939 | 36125 ft | 405 kts | 222° |
| 2026-05-09 00:13 | 32.99224 | 131.53400 | 36123 ft | 403 kts | 223° |
| 2026-05-09 00:13 | 32.94455 | 131.49874 | 36123 ft | 403 kts | 222° |
| 2026-05-09 00:14 | 32.89724 | 131.46382 | 36113 ft | 400 kts | 222° |
| 2026-05-09 00:14 | 32.84968 | 131.42871 | 36123 ft | 406 kts | 222° |
| 2026-05-09 00:15 | 32.80213 | 131.39366 | 36123 ft | 400 kts | 222° |
| 2026-05-09 00:15 | 32.75495 | 131.35827 | 36118 ft | 405 kts | 223° |
| 2026-05-09 00:16 | 32.70750 | 131.32275 | 36140 ft | 405 kts | 222° |
| 2026-05-09 00:16 | 32.65961 | 131.28696 | 36144 ft | 406 kts | 222° |
| 2026-05-09 00:17 | 32.61218 | 131.25160 | 36143 ft | 404 kts | 222° |
| 2026-05-09 00:17 | 32.56429 | 131.21589 | 36145 ft | 409 kts | 222° |
| 2026-05-09 00:18 | 32.51657 | 131.18043 | 36145 ft | 403 kts | 222° |
| 2026-05-09 00:18 | 32.46891 | 131.14501 | 36145 ft | 404 kts | 222° |
| 2026-05-09 00:19 | 32.42128 | 131.10966 | 36140 ft | 407 kts | 222° |
| 2026-05-09 00:19 | 32.37301 | 131.07439 | 36139 ft | 406 kts | 221° |
| 2026-05-09 00:20 | 32.32501 | 131.03968 | 36146 ft | 407 kts | 221° |
| 2026-05-09 00:20 | 32.27658 | 131.00466 | 36136 ft | 408 kts | 221° |
| 2026-05-09 00:21 | 32.22822 | 130.96974 | 36134 ft | 408 kts | 221° |
| 2026-05-09 00:21 | 32.17994 | 130.93490 | 36131 ft | 409 kts | 221° |
| 2026-05-09 00:22 | 32.13134 | 130.89988 | 36127 ft | 409 kts | 221° |
| 2026-05-09 00:22 | 32.08319 | 130.86469 | 36130 ft | 410 kts | 221° |
| 2026-05-09 00:23 | 32.03513 | 130.82943 | 36124 ft | 408 kts | 221° |
| 2026-05-09 00:23 | 31.98697 | 130.79414 | 36121 ft | 408 kts | 221° |
| 2026-05-09 00:24 | 31.93890 | 130.75900 | 36119 ft | 407 kts | 221° |
| 2026-05-09 00:24 | 31.89058 | 130.72369 | 36117 ft | 408 kts | 221° |
| 2026-05-09 00:25 | 31.84262 | 130.68872 | 36112 ft | 408 kts | 221° |
| 2026-05-09 00:25 | 31.79409 | 130.65335 | 36115 ft | 412 kts | 221° |
| 2026-05-09 00:26 | 31.74576 | 130.61822 | 36114 ft | 408 kts | 221° |
| 2026-05-09 00:26 | 31.69917 | 130.58079 | 36122 ft | 403 kts | 230° |
| 2026-05-09 00:27 | 31.66345 | 130.53154 | 36113 ft | 394 kts | 238° |
| 2026-05-09 00:27 | 31.63010 | 130.48077 | 36114 ft | 393 kts | 238° |
| 2026-05-09 00:28 | 31.59703 | 130.43050 | 36110 ft | 391 kts | 238° |
| 2026-05-09 00:28 | 31.56372 | 130.37992 | 36104 ft | 393 kts | 238° |
| 2026-05-09 00:29 | 31.53025 | 130.32919 | 36131 ft | 394 kts | 238° |
| 2026-05-09 00:29 | 31.49700 | 130.27887 | 36124 ft | 391 kts | 238° |
| 2026-05-09 00:30 | 31.46355 | 130.22826 | 36127 ft | 398 kts | 238° |
| 2026-05-09 00:30 | 31.42994 | 130.17755 | 36118 ft | 392 kts | 238° |
| 2026-05-09 00:31 | 31.39636 | 130.12688 | 36117 ft | 397 kts | 238° |
| 2026-05-09 00:31 | 31.36271 | 130.07623 | 36114 ft | 392 kts | 238° |
| 2026-05-09 00:32 | 31.32909 | 130.02565 | 36114 ft | 397 kts | 237° |
| 2026-05-09 00:32 | 31.29526 | 129.97486 | 36108 ft | 395 kts | 238° |
| 2026-05-09 00:33 | 31.26161 | 129.92439 | 36107 ft | 395 kts | 238° |
| 2026-05-09 00:33 | 31.22769 | 129.87354 | 36106 ft | 400 kts | 237° |
| 2026-05-09 00:34 | 31.19368 | 129.82269 | 36107 ft | 399 kts | 237° |
| 2026-05-09 00:34 | 31.15960 | 129.77177 | 36104 ft | 397 kts | 237° |
| 2026-05-09 00:35 | 31.12563 | 129.72106 | 36106 ft | 400 kts | 237° |
| 2026-05-09 00:35 | 31.09149 | 129.67020 | 36104 ft | 398 kts | 238° |
| 2026-05-09 00:36 | 31.05728 | 129.61928 | 36104 ft | 402 kts | 238° |
| 2026-05-09 00:36 | 31.02297 | 129.56829 | 36100 ft | 398 kts | 237° |
| 2026-05-09 00:37 | 30.98889 | 129.51769 | 36095 ft | 402 kts | 237° |
| 2026-05-09 00:37 | 30.95448 | 129.46669 | 36112 ft | 403 kts | 238° |
| 2026-05-09 00:38 | 30.91978 | 129.41532 | 36109 ft | 400 kts | 237° |
| 2026-05-09 00:38 | 30.88561 | 129.36479 | 36098 ft | 401 kts | 237° |
| 2026-05-09 00:39 | 30.85101 | 129.31367 | 36121 ft | 405 kts | 237° |
| 2026-05-09 00:39 | 30.81637 | 129.26260 | 36128 ft | 402 kts | 237° |
| 2026-05-09 00:40 | 30.78168 | 129.21150 | 36127 ft | 405 kts | 237° |
| 2026-05-09 00:40 | 30.74744 | 129.15997 | 36120 ft | 404 kts | 238° |
| 2026-05-09 00:41 | 30.69634 | 129.08199 | 36129 ft | 401 kts | 238° |
| 2026-05-09 00:41 | 30.66247 | 129.03045 | 36128 ft | 405 kts | 238° |
| 2026-05-09 00:42 | 30.62838 | 128.97868 | 36130 ft | 405 kts | 238° |
| 2026-05-09 00:42 | 30.59418 | 128.92681 | 36124 ft | 405 kts | 238° |
| 2026-05-09 00:43 | 30.55981 | 128.87477 | 36126 ft | 405 kts | 238° |
| 2026-05-09 00:43 | 30.52550 | 128.82288 | 36122 ft | 409 kts | 238° |
| 2026-05-09 00:44 | 30.49095 | 128.77072 | 36126 ft | 408 kts | 238° |
| 2026-05-09 00:44 | 30.45639 | 128.71860 | 36126 ft | 408 kts | 238° |
| 2026-05-09 00:45 | 30.42189 | 128.66665 | 36126 ft | 408 kts | 238° |
| 2026-05-09 00:45 | 30.38718 | 128.61442 | 36122 ft | 410 kts | 238° |
| 2026-05-09 00:46 | 30.35268 | 128.56260 | 36129 ft | 409 kts | 238° |
| 2026-05-09 00:46 | 30.31778 | 128.51024 | 36126 ft | 410 kts | 237° |
| 2026-05-09 00:47 | 30.28306 | 128.45823 | 36123 ft | 410 kts | 238° |
| 2026-05-09 00:47 | 30.24825 | 128.40613 | 36122 ft | 412 kts | 238° |
| 2026-05-09 00:48 | 30.21316 | 128.35370 | 36124 ft | 412 kts | 238° |
| 2026-05-09 00:48 | 30.17824 | 128.30160 | 36146 ft | 412 kts | 237° |
| 2026-05-09 00:49 | 30.14314 | 128.24927 | 36150 ft | 412 kts | 237° |
| 2026-05-09 00:49 | 30.10811 | 128.19713 | 36158 ft | 415 kts | 238° |
| 2026-05-09 00:50 | 30.07270 | 128.14450 | 36143 ft | 413 kts | 237° |
| 2026-05-09 00:50 | 30.03747 | 128.09218 | 36151 ft | 414 kts | 237° |
| 2026-05-09 00:51 | 30.00235 | 128.04011 | 36147 ft | 412 kts | 237° |
| 2026-05-09 00:51 | 29.96685 | 127.98753 | 36151 ft | 418 kts | 237° |
| 2026-05-09 00:52 | 29.93144 | 127.93519 | 36145 ft | 411 kts | 238° |
| 2026-05-09 00:52 | 29.89612 | 127.88301 | 36146 ft | 416 kts | 238° |
| 2026-05-09 00:53 | 29.86065 | 127.83072 | 36140 ft | 416 kts | 236° |
| 2026-05-09 00:53 | 29.82295 | 127.77988 | 36143 ft | 417 kts | 236° |
| 2026-05-09 00:54 | 29.78511 | 127.72939 | 36139 ft | 421 kts | 236° |
| 2026-05-09 00:54 | 29.74721 | 127.67873 | 36137 ft | 418 kts | 236° |
| 2026-05-09 00:55 | 29.70920 | 127.62789 | 36136 ft | 417 kts | 235° |
| 2026-05-09 00:55 | 29.67167 | 127.57771 | 36140 ft | 418 kts | 236° |
| 2026-05-09 00:56 | 29.63371 | 127.52698 | 36127 ft | 421 kts | 236° |
| 2026-05-09 00:56 | 29.59567 | 127.47624 | 36133 ft | 419 kts | 236° |
| 2026-05-09 00:57 | 29.55881 | 127.42460 | 36134 ft | 419 kts | 238° |
| 2026-05-09 00:57 | 29.52289 | 127.37219 | 36135 ft | 419 kts | 238° |
| 2026-05-09 00:58 | 29.48709 | 127.32021 | 36149 ft | 416 kts | 238° |
| 2026-05-09 00:58 | 29.45092 | 127.26785 | 36158 ft | 418 kts | 238° |
| 2026-05-09 00:59 | 29.41476 | 127.21561 | 36141 ft | 419 kts | 237° |
| 2026-05-09 00:59 | 29.37873 | 127.16367 | 36151 ft | 421 kts | 238° |
| 2026-05-09 01:00 | 29.34247 | 127.11148 | 36149 ft | 417 kts | 238° |
| 2026-05-09 01:00 | 29.30626 | 127.05941 | 36157 ft | 421 kts | 238° |
| 2026-05-09 01:01 | 29.27001 | 127.00737 | 36145 ft | 420 kts | 238° |
| 2026-05-09 01:01 | 29.23373 | 126.95537 | 36149 ft | 418 kts | 238° |
| 2026-05-09 01:02 | 29.19735 | 126.90327 | 36148 ft | 418 kts | 238° |
| 2026-05-09 01:02 | 29.16124 | 126.85164 | 36152 ft | 418 kts | 238° |
| 2026-05-09 01:03 | 29.12480 | 126.79957 | 36147 ft | 423 kts | 239° |
| 2026-05-09 01:03 | 29.08829 | 126.74751 | 36145 ft | 419 kts | 239° |
| 2026-05-09 01:04 | 29.05167 | 126.69532 | 36149 ft | 420 kts | 239° |
| 2026-05-09 01:04 | 29.01508 | 126.64325 | 36149 ft | 422 kts | 238° |
| 2026-05-09 01:05 | 28.97873 | 126.59162 | 36142 ft | 420 kts | 238° |
| 2026-05-09 01:06 | 28.92254 | 126.51480 | 36138 ft | 420 kts | 237° |
| 2026-05-09 01:06 | 28.88466 | 126.46382 | 36133 ft | 422 kts | 237° |
| 2026-05-09 01:07 | 28.84694 | 126.41307 | 36139 ft | 423 kts | 237° |
| 2026-05-09 01:07 | 28.80904 | 126.36211 | 36134 ft | 421 kts | 237° |
| 2026-05-09 01:08 | 28.77106 | 126.31104 | 36152 ft | 425 kts | 237° |
| 2026-05-09 01:08 | 28.73318 | 126.26023 | 36149 ft | 419 kts | 237° |
| 2026-05-09 01:09 | 28.69545 | 126.20962 | 36149 ft | 421 kts | 237° |
| 2026-05-09 01:09 | 28.65751 | 126.15881 | 36144 ft | 422 kts | 237° |
| 2026-05-09 01:10 | 28.61983 | 126.10766 | 36147 ft | 424 kts | 238° |
| 2026-05-09 01:10 | 28.58341 | 126.05601 | 36145 ft | 418 kts | 238° |
| 2026-05-09 01:11 | 28.54673 | 126.00408 | 36143 ft | 424 kts | 238° |
| 2026-05-09 01:11 | 28.50998 | 125.95229 | 36143 ft | 419 kts | 238° |
| 2026-05-09 01:12 | 28.47348 | 125.90088 | 36139 ft | 422 kts | 238° |
| 2026-05-09 01:12 | 28.43674 | 125.84925 | 36137 ft | 420 kts | 238° |
| 2026-05-09 01:13 | 28.40005 | 125.79777 | 36136 ft | 420 kts | 238° |
| 2026-05-09 01:13 | 28.36322 | 125.74613 | 36138 ft | 422 kts | 238° |
| 2026-05-09 01:14 | 28.32640 | 125.69459 | 36145 ft | 420 kts | 238° |
| 2026-05-09 01:14 | 28.28968 | 125.64326 | 36134 ft | 418 kts | 238° |
| 2026-05-09 01:15 | 28.25299 | 125.59200 | 36134 ft | 421 kts | 238° |
| 2026-05-09 01:15 | 28.21617 | 125.54065 | 36136 ft | 421 kts | 238° |
| 2026-05-09 01:16 | 28.17938 | 125.48941 | 36147 ft | 420 kts | 239° |
| 2026-05-09 01:16 | 28.14232 | 125.43782 | 36144 ft | 421 kts | 238° |
| 2026-05-09 01:17 | 28.08708 | 125.36106 | 36148 ft | 423 kts | 238° |
| 2026-05-09 01:17 | 28.05020 | 125.30994 | 36172 ft | 420 kts | 238° |
| 2026-05-09 01:18 | 28.01315 | 125.25858 | 36166 ft | 423 kts | 238° |
| 2026-05-09 01:18 | 27.97616 | 125.20740 | 36170 ft | 422 kts | 238° |
| 2026-05-09 01:19 | 27.93914 | 125.15623 | 36166 ft | 422 kts | 238° |
| 2026-05-09 01:19 | 27.90205 | 125.10504 | 36172 ft | 420 kts | 238° |
| 2026-05-09 01:20 | 27.86502 | 125.05394 | 36158 ft | 423 kts | 238° |
| 2026-05-09 01:20 | 27.82794 | 125.00289 | 36158 ft | 422 kts | 238° |
| 2026-05-09 01:21 | 27.79086 | 124.95188 | 36165 ft | 421 kts | 238° |
| 2026-05-09 01:21 | 27.75371 | 124.90083 | 36161 ft | 421 kts | 238° |
| 2026-05-09 01:22 | 27.71663 | 124.84994 | 36165 ft | 422 kts | 238° |
| 2026-05-09 01:22 | 27.67934 | 124.79882 | 36152 ft | 424 kts | 238° |
| 2026-05-09 01:23 | 27.64197 | 124.74766 | 36153 ft | 423 kts | 238° |
| 2026-05-09 01:23 | 27.60460 | 124.69653 | 36150 ft | 424 kts | 238° |
| 2026-05-09 01:24 | 27.56722 | 124.64538 | 36142 ft | 424 kts | 238° |
| 2026-05-09 01:24 | 27.52990 | 124.59440 | 36148 ft | 423 kts | 238° |
| 2026-05-09 01:25 | 27.49243 | 124.54325 | 36144 ft | 423 kts | 238° |
| 2026-05-09 01:25 | 27.45494 | 124.49213 | 36138 ft | 425 kts | 238° |
| 2026-05-09 01:26 | 27.41747 | 124.44113 | 36138 ft | 424 kts | 238° |
| 2026-05-09 01:26 | 27.37976 | 124.38982 | 36131 ft | 426 kts | 238° |
| 2026-05-09 01:27 | 27.34218 | 124.33878 | 36143 ft | 426 kts | 238° |
| 2026-05-09 01:27 | 27.30440 | 124.28752 | 36153 ft | 426 kts | 237° |
| 2026-05-09 01:28 | 27.26663 | 124.23633 | 36150 ft | 427 kts | 237° |
| 2026-05-09 01:28 | 27.22867 | 124.18495 | 36146 ft | 428 kts | 237° |
| 2026-05-09 01:29 | 27.19077 | 124.13370 | 36140 ft | 429 kts | 237° |
| 2026-05-09 01:29 | 27.15282 | 124.08245 | 36141 ft | 428 kts | 237° |
| 2026-05-09 01:30 | 27.11466 | 124.03097 | 36136 ft | 430 kts | 237° |
| 2026-05-09 01:30 | 27.07654 | 123.97977 | 36133 ft | 428 kts | 237° |
| 2026-05-09 01:31 | 27.03814 | 123.92874 | 36129 ft | 431 kts | 237° |
| 2026-05-09 01:31 | 26.99970 | 123.87774 | 36126 ft | 429 kts | 237° |
| 2026-05-09 01:32 | 26.96105 | 123.82648 | 36121 ft | 430 kts | 237° |
| 2026-05-09 01:32 | 26.92258 | 123.77551 | 36119 ft | 431 kts | 237° |
| 2026-05-09 01:33 | 26.88392 | 123.72437 | 36111 ft | 431 kts | 237° |
| 2026-05-09 01:33 | 26.84529 | 123.67330 | 36106 ft | 430 kts | 237° |
| 2026-05-09 01:34 | 26.80658 | 123.62220 | 36116 ft | 431 kts | 237° |
| 2026-05-09 01:34 | 26.76796 | 123.57126 | 36112 ft | 431 kts | 237° |
| 2026-05-09 01:35 | 26.72925 | 123.52025 | 36100 ft | 433 kts | 237° |
| 2026-05-09 01:35 | 26.69035 | 123.46908 | 36100 ft | 431 kts | 237° |
| 2026-05-09 01:36 | 26.65155 | 123.41807 | 36096 ft | 434 kts | 237° |
| 2026-05-09 01:36 | 26.61262 | 123.36700 | 36098 ft | 432 kts | 237° |
| 2026-05-09 01:37 | 26.57380 | 123.31612 | 36117 ft | 433 kts | 237° |
| 2026-05-09 01:37 | 26.53465 | 123.26484 | 36121 ft | 432 kts | 236° |
| 2026-05-09 01:38 | 26.49573 | 123.21394 | 36117 ft | 434 kts | 236° |
| 2026-05-09 01:38 | 26.45654 | 123.16274 | 36119 ft | 434 kts | 236° |
| 2026-05-09 01:39 | 26.41734 | 123.11159 | 36116 ft | 433 kts | 237° |
| 2026-05-09 01:39 | 26.37816 | 123.06051 | 36107 ft | 436 kts | 236° |
| 2026-05-09 01:40 | 26.33895 | 123.00949 | 36113 ft | 433 kts | 237° |
| 2026-05-09 01:40 | 26.29967 | 122.95839 | 36110 ft | 438 kts | 236° |
| 2026-05-09 01:41 | 26.26015 | 122.90711 | 36112 ft | 436 kts | 236° |
| 2026-05-09 01:41 | 26.22073 | 122.85597 | 36110 ft | 437 kts | 236° |
| 2026-05-09 01:42 | 26.18122 | 122.80479 | 36117 ft | 437 kts | 236° |
| 2026-05-09 01:42 | 26.14167 | 122.75362 | 36108 ft | 437 kts | 236° |
| 2026-05-09 01:43 | 26.10200 | 122.70234 | 36111 ft | 439 kts | 236° |
| 2026-05-09 01:43 | 26.06231 | 122.65110 | 36112 ft | 439 kts | 236° |
| 2026-05-09 01:44 | 26.02263 | 122.59995 | 36109 ft | 439 kts | 236° |
| 2026-05-09 01:44 | 25.98266 | 122.54846 | 36108 ft | 438 kts | 236° |
| 2026-05-09 01:45 | 25.94289 | 122.49728 | 36105 ft | 441 kts | 236° |
| 2026-05-09 01:45 | 25.90300 | 122.44599 | 36113 ft | 440 kts | 236° |
| 2026-05-09 01:46 | 25.86306 | 122.39470 | 36100 ft | 440 kts | 236° |
| 2026-05-09 01:46 | 25.82297 | 122.34324 | 36095 ft | 441 kts | 236° |
| 2026-05-09 01:47 | 25.78297 | 122.29199 | 36104 ft | 441 kts | 236° |
| 2026-05-09 01:47 | 25.76313 | 122.26662 | 35721 ft | 434 kts | 236° |
| 2026-05-09 01:47 | 25.74339 | 122.24135 | 34702 ft | 438 kts | 236° |
| 2026-05-09 01:48 | 25.72338 | 122.21572 | 33650 ft | 442 kts | 236° |
| 2026-05-09 01:48 | 25.70336 | 122.19012 | 32718 ft | 442 kts | 235° |
| 2026-05-09 01:48 | 25.68333 | 122.16454 | 31903 ft | 442 kts | 235° |
| 2026-05-09 01:48 | 25.66328 | 122.13893 | 31039 ft | 443 kts | 236° |
| 2026-05-09 01:49 | 25.64325 | 122.11338 | 30434 ft | 437 kts | 236° |
| 2026-05-09 01:49 | 25.62549 | 122.08687 | 29966 ft | 428 kts | 244° |
| 2026-05-09 01:49 | 25.61176 | 122.05733 | 29446 ft | 438 kts | 252° |
| 2026-05-09 01:49 | 25.60210 | 122.02536 | 28884 ft | 435 kts | 258° |
| 2026-05-09 01:50 | 25.59395 | 121.99353 | 28326 ft | 429 kts | 258° |
| 2026-05-09 01:50 | 25.58597 | 121.96212 | 27759 ft | 424 kts | 258° |
| 2026-05-09 01:50 | 25.57807 | 121.93104 | 27206 ft | 419 kts | 257° |
| 2026-05-09 01:50 | 25.57024 | 121.90031 | 26650 ft | 415 kts | 257° |
| 2026-05-09 01:51 | 25.56246 | 121.86980 | 26085 ft | 414 kts | 257° |
| 2026-05-09 01:51 | 25.55468 | 121.83930 | 25522 ft | 413 kts | 257° |
| 2026-05-09 01:51 | 25.54689 | 121.80885 | 25187 ft | 407 kts | 257° |
| 2026-05-09 01:51 | 25.53916 | 121.77865 | 24804 ft | 412 kts | 257° |
| 2026-05-09 01:52 | 25.53139 | 121.74829 | 24277 ft | 411 kts | 257° |
| 2026-05-09 01:52 | 25.52366 | 121.71815 | 23706 ft | 408 kts | 257° |
| 2026-05-09 01:52 | 25.51597 | 121.68823 | 23142 ft | 404 kts | 256° |
| 2026-05-09 01:52 | 25.50835 | 121.65859 | 22572 ft | 401 kts | 256° |
| 2026-05-09 01:53 | 25.50079 | 121.62920 | 22012 ft | 398 kts | 256° |
| 2026-05-09 01:53 | 25.49284 | 121.59994 | 21432 ft | 396 kts | 252° |
| 2026-05-09 01:53 | 25.48105 | 121.57262 | 20850 ft | 397 kts | 242° |
| 2026-05-09 01:53 | 25.46493 | 121.54805 | 20271 ft | 397 kts | 234° |
| 2026-05-09 01:54 | 25.44719 | 121.52488 | 19699 ft | 395 kts | 233° |
| 2026-05-09 01:54 | 25.42945 | 121.50201 | 19122 ft | 392 kts | 233° |
| 2026-05-09 01:54 | 25.41181 | 121.47931 | 18544 ft | 390 kts | 233° |
| 2026-05-09 01:54 | 25.39425 | 121.45677 | 17971 ft | 387 kts | 233° |
| 2026-05-09 01:55 | 25.37668 | 121.43428 | 17392 ft | 384 kts | 233° |
| 2026-05-09 01:55 | 25.35935 | 121.41210 | 16819 ft | 382 kts | 233° |
| 2026-05-09 01:55 | 25.34213 | 121.39009 | 16255 ft | 379 kts | 233° |
| 2026-05-09 01:55 | 25.32498 | 121.36819 | 15674 ft | 377 kts | 232° |
| 2026-05-09 01:56 | 25.30797 | 121.34647 | 15079 ft | 374 kts | 232° |
| 2026-05-09 01:56 | 25.29110 | 121.32496 | 14512 ft | 370 kts | 232° |
| 2026-05-09 01:56 | 25.27437 | 121.30362 | 13975 ft | 367 kts | 232° |
| 2026-05-09 01:56 | 25.25764 | 121.28231 | 13397 ft | 365 kts | 232° |
| 2026-05-09 01:57 | 25.24114 | 121.26129 | 12826 ft | 362 kts | 232° |
| 2026-05-09 01:57 | 25.22476 | 121.24044 | 12279 ft | 360 kts | 231° |
| 2026-05-09 01:57 | 25.20849 | 121.21973 | 11704 ft | 358 kts | 231° |
| 2026-05-09 01:57 | 25.19230 | 121.19914 | 11145 ft | 355 kts | 231° |
| 2026-05-09 01:58 | 25.17630 | 121.17880 | 10808 ft | 346 kts | 230° |
| 2026-05-09 01:58 | 25.16092 | 121.15927 | 10722 ft | 330 kts | 231° |
| 2026-05-09 01:58 | 25.14610 | 121.14045 | 10613 ft | 317 kts | 231° |
| 2026-05-09 01:58 | 25.13194 | 121.12247 | 10479 ft | 305 kts | 230° |
| 2026-05-09 01:59 | 25.11827 | 121.10512 | 10336 ft | 295 kts | 230° |
| 2026-05-09 01:59 | 25.10508 | 121.08837 | 10208 ft | 285 kts | 230° |
| 2026-05-09 01:59 | 25.09234 | 121.07217 | 10096 ft | 275 kts | 230° |
| 2026-05-09 01:59 | 25.07991 | 121.05637 | 9805 ft | 273 kts | 230° |
| 2026-05-09 02:00 | 25.06749 | 121.04060 | 9426 ft | 273 kts | 230° |
| 2026-05-09 02:00 | 25.05498 | 121.02471 | 9098 ft | 273 kts | 230° |
| 2026-05-09 02:00 | 25.04259 | 121.00899 | 8767 ft | 272 kts | 230° |
| 2026-05-09 02:00 | 25.03025 | 120.99334 | 8413 ft | 270 kts | 229° |
| 2026-05-09 02:01 | 25.01817 | 120.97803 | 8096 ft | 260 kts | 229° |
| 2026-05-09 02:01 | 25.00660 | 120.96336 | 7827 ft | 249 kts | 229° |
| 2026-05-09 02:01 | 24.99525 | 120.94898 | 7594 ft | 256 kts | 229° |
| 2026-05-09 02:01 | 24.98353 | 120.93413 | 7259 ft | 258 kts | 229° |
| 2026-05-09 02:02 | 24.97173 | 120.91919 | 6941 ft | 257 kts | 229° |
| 2026-05-09 02:02 | 24.96006 | 120.90442 | 6643 ft | 256 kts | 229° |
| 2026-05-09 02:02 | 24.94839 | 120.88965 | 6295 ft | 257 kts | 229° |
| 2026-05-09 02:02 | 24.93562 | 120.87612 | 5939 ft | 256 kts | 211° |
| 2026-05-09 02:03 | 24.91890 | 120.87015 | 5639 ft | 254 kts | 183° |
| 2026-05-09 02:03 | 24.90175 | 120.87365 | 5351 ft | 253 kts | 154° |
| 2026-05-09 02:03 | 24.88828 | 120.88556 | 5093 ft | 250 kts | 125° |
| 2026-05-09 02:03 | 24.88149 | 120.90299 | 4814 ft | 251 kts | 99° |
| 2026-05-09 02:04 | 24.88288 | 120.92180 | 4518 ft | 246 kts | 70° |
| 2026-05-09 02:04 | 24.89193 | 120.93756 | 4266 ft | 247 kts | 46° |
| 2026-05-09 02:04 | 24.90339 | 120.95146 | 3957 ft | 245 kts | 60° |
| 2026-05-09 02:04 | 24.90995 | 120.96828 | 3867 ft | 235 kts | 69° |
| 2026-05-09 02:05 | 24.91542 | 120.98476 | 3807 ft | 225 kts | 70° |
| 2026-05-09 02:05 | 24.92064 | 121.00056 | 3743 ft | 216 kts | 70° |
| 2026-05-09 02:05 | 24.92568 | 121.01584 | 3663 ft | 207 kts | 70° |
| 2026-05-09 02:05 | 24.93046 | 121.03034 | 3597 ft | 197 kts | 70° |
| 2026-05-09 02:06 | 24.93498 | 121.04403 | 3523 ft | 185 kts | 70° |
| 2026-05-09 02:06 | 24.93919 | 121.05683 | 3465 ft | 172 kts | 69° |
| 2026-05-09 02:06 | 24.94312 | 121.06875 | 3405 ft | 160 kts | 70° |
| 2026-05-09 02:07 | 24.95366 | 121.08902 | 3197 ft | 154 kts | 51° |
| 2026-05-09 02:07 | 24.96075 | 121.09775 | 3007 ft | 150 kts | 50° |
| 2026-05-09 02:07 | 24.96757 | 121.10619 | 2818 ft | 145 kts | 50° |
| 2026-05-09 02:07 | 24.97426 | 121.11458 | 2649 ft | 149 kts | 50° |
| 2026-05-09 02:08 | 24.98091 | 121.12292 | 2454 ft | 140 kts | 50° |
| 2026-05-09 02:08 | 24.98713 | 121.13073 | 2281 ft | 134 kts | 49° |
| 2026-05-09 02:08 | 24.99326 | 121.13845 | 2104 ft | 135 kts | 49° |
| 2026-05-09 02:08 | 24.99936 | 121.14613 | 1929 ft | 133 kts | 49° |
| 2026-05-09 02:09 | 25.00544 | 121.15379 | 1770 ft | 131 kts | 48° |
| 2026-05-09 02:09 | 25.01140 | 121.16130 | 1597 ft | 131 kts | 48° |
| 2026-05-09 02:09 | 25.01724 | 121.16867 | 1432 ft | 122 kts | 48° |
| 2026-05-09 02:09 | 25.02272 | 121.17545 | 1268 ft | 116 kts | 47° |
| 2026-05-09 02:10 | 25.02815 | 121.18195 | 1138 ft | 117 kts | 46° |
| 2026-05-09 02:10 | 25.03357 | 121.18848 | 997 ft | 116 kts | 47° |
| 2026-05-09 02:10 | 25.03897 | 121.19517 | 825 ft | 119 kts | 47° |
| 2026-05-09 02:10 | 25.04432 | 121.20206 | 636 ft | 117 kts | 49° |
| 2026-05-09 02:11 | 25.04953 | 121.20883 | 502 ft | 115 kts | 49° |
| 2026-05-09 02:11 | 25.05476 | 121.21558 | 358 ft | 117 kts | 49° |
| 2026-05-09 02:11 | 25.06019 | 121.22255 | 228 ft | 123 kts | 49° |
| 2026-05-09 02:11 | 25.06568 | 121.22959 | 131 ft | 111 kts | 49° |
| 2026-05-09 02:12 | 25.07076 | 121.23601 | 130 ft | 104 kts | 49° |
| 2026-05-09 02:12 | 25.07446 | 121.24072 | 130 ft | 59 kts | 44° |
| 2026-05-09 02:12 | 25.07687 | 121.24222 | 130 ft | 23 kts | 15° |
| 2026-05-09 02:12 | 25.07814 | 121.24170 | 130 ft | 13 kts | 321° |
| 2026-05-09 02:13 | 25.07852 | 121.24136 | 130 ft | 5 kts | 320° |
| 2026-05-09 02:13 | 25.07859 | 121.24130 | 130 ft | 0 kts | 321° |